Terminal Aerodrome Forecast
Issued by NWS

Home | Current Version | Previous Version | Graphics & Text | Print | Product List | Glossary On
Versions: 1 2 3 4 5 6 7 8 9 10 11 12 13 14
000
FTUS43 KOAX 310520
TAFCDR
TAF
KCDR 310520Z 3106/0106 19008KT P6SM BKN150
     FM311100 25007KT P6SM BKN150
     FM311400 01012KT P6SM BKN150
     FM312200 14010KT P6SM SCT150=

USA.gov is the U.S. government's official web portal to all federal, state and local government web resources and services.